Time;durP1;ratioP1;P1;durP2;ratioP2;P2;SDS_P1;SDS_P2;PMS_P1;PMS_P2;Temp;Humidity;BMP_temperature;BMP_pressure;BME280_temperature;BME280_humidity;BME280_pressure;Samples;Min_cycle;Max_cycle;Signal;HPM_P1;HPM_P2
2023/09/29 00:01:37;;;;;;;6.85;2.55;;;15.60;99.90;;;;;;5031434;28;20216;-59
2023/09/29 00:04:05;;;;;;;2.83;2.40;;;15.40;99.90;;;;;;5031153;28;20214;-59
2023/09/29 00:06:33;;;;;;;4.60;2.37;;;15.30;99.90;;;;;;5031031;28;20234;-58
2023/09/29 00:09:00;;;;;;;4.60;2.50;;;15.20;99.90;;;;;;5031112;28;20238;-58
2023/09/29 00:11:27;;;;;;;7.32;2.75;;;15.20;99.90;;;;;;5030341;28;20353;-59
2023/09/29 00:13:55;;;;;;;5.40;2.63;;;15.20;99.90;;;;;;5030847;28;20696;-61
2023/09/29 00:16:21;;;;;;;4.05;2.20;;;15.20;99.90;;;;;;5030832;28;20253;-58
2023/09/29 00:18:48;;;;;;;3.83;2.50;;;15.10;99.90;;;;;;5030991;28;20221;-59
2023/09/29 00:21:15;;;;;;;6.47;2.37;;;15.10;99.90;;;;;;5031088;28;20203;-60
2023/09/29 00:23:41;;;;;;;3.30;2.20;;;15.20;99.90;;;;;;5031046;28;20217;-59
2023/09/29 00:26:08;;;;;;;3.33;2.30;;;15.20;99.90;;;;;;5030441;28;20222;-59
2023/09/29 00:28:36;;;;;;;6.10;2.37;;;15.10;99.90;;;;;;5031045;28;20238;-59
2023/09/29 00:31:06;;;;;;;4.17;2.27;;;15.10;99.90;;;;;;5031090;28;20229;-59
2023/09/29 00:33:33;;;;;;;6.00;2.70;;;15.00;99.90;;;;;;5030836;28;20202;-61
2023/09/29 00:36:00;;;;;;;3.90;2.10;;;15.00;99.90;;;;;;5030805;28;20223;-60
2023/09/29 00:38:27;;;;;;;4.07;2.40;;;15.00;99.90;;;;;;5031110;28;20265;-60
2023/09/29 00:40:54;;;;;;;9.57;2.93;;;14.90;99.90;;;;;;5030647;28;20202;-60
2023/09/29 00:43:21;;;;;;;3.70;2.37;;;14.90;99.90;;;;;;5030970;28;20205;-60
2023/09/29 00:45:48;;;;;;;4.47;2.60;;;14.90;99.90;;;;;;5030477;28;20316;-61
2023/09/29 00:48:19;;;;;;;3.93;2.17;;;14.90;99.90;;;;;;5031284;28;20252;-61
2023/09/29 00:50:46;;;;;;;7.67;2.50;;;14.90;99.90;;;;;;5031067;28;20320;-59
2023/09/29 00:53:18;;;;;;;6.47;2.97;;;15.00;99.90;;;;;;5022370;28;20221;-59
2023/09/29 00:55:47;;;;;;;3.70;2.53;;;15.00;99.90;;;;;;5030303;28;20249;-59
2023/09/29 00:58:15;;;;;;;4.78;2.45;;;15.10;99.90;;;;;;5030633;28;20210;-57
2023/09/29 01:00:42;;;;;;;4.33;2.37;;;15.00;99.90;;;;;;5030575;28;20241;-60
2023/09/29 01:03:12;;;;;;;3.60;2.45;;;15.10;99.90;;;;;;5030615;28;20202;-60
2023/09/29 01:05:43;;;;;;;2.63;2.30;;;15.20;99.90;;;;;;5030366;28;20313;-60
2023/09/29 01:08:12;;;;;;;4.80;2.58;;;15.20;99.90;;;;;;5030678;28;20279;-60
2023/09/29 01:10:40;;;;;;;5.50;2.43;;;15.20;99.90;;;;;;5030481;28;20214;-59
2023/09/29 01:13:08;;;;;;;3.20;2.45;;;15.10;99.90;;;;;;5030458;28;20210;-60
2023/09/29 01:15:36;;;;;;;3.80;2.50;;;15.00;99.90;;;;;;5030084;28;20228;-58
2023/09/29 01:18:04;;;;;;;3.10;2.33;;;15.00;99.90;;;;;;5030273;28;20202;-59
2023/09/29 01:20:31;;;;;;;2.70;2.17;;;15.10;99.90;;;;;;5030261;28;20210;-60
2023/09/29 01:23:01;;;;;;;4.37;2.47;;;15.20;99.90;;;;;;5033759;28;20215;-60
2023/09/29 01:25:29;;;;;;;4.40;2.33;;;15.20;99.90;;;;;;5034239;28;20244;-60
2023/09/29 01:27:57;;;;;;;3.03;2.50;;;15.20;99.90;;;;;;5034216;28;20217;-60
2023/09/29 01:30:25;;;;;;;4.30;2.50;;;15.20;99.90;;;;;;5034103;28;20233;-59
2023/09/29 01:32:53;;;;;;;3.97;2.30;;;15.10;99.90;;;;;;5033867;28;20202;-60
2023/09/29 01:35:23;;;;;;;3.00;2.20;;;15.00;99.90;;;;;;5033870;28;20206;-60
2023/09/29 01:37:53;;;;;;;4.13;2.43;;;14.90;99.90;;;;;;5034215;28;20211;-59
2023/09/29 01:40:20;;;;;;;4.07;2.50;;;14.90;99.90;;;;;;5033899;28;20217;-60
2023/09/29 01:42:50;;;;;;;5.00;2.50;;;14.70;99.90;;;;;;5033830;28;20242;-57
2023/09/29 01:45:17;;;;;;;5.43;2.90;;;14.70;99.90;;;;;;5025576;28;20218;-59
2023/09/29 01:47:46;;;;;;;3.53;2.40;;;14.80;99.90;;;;;;5033940;28;20215;-59
2023/09/29 01:50:14;;;;;;;3.27;2.30;;;14.90;99.90;;;;;;5033474;28;20229;-59
2023/09/29 01:52:42;;;;;;;3.70;2.30;;;14.90;99.90;;;;;;5033392;28;20229;-60
2023/09/29 01:55:12;;;;;;;3.22;2.35;;;14.80;99.90;;;;;;5033360;28;20198;-60
2023/09/29 01:57:39;;;;;;;3.80;2.50;;;14.80;99.90;;;;;;5033560;28;20598;-57
2023/09/29 02:00:15;;;;;;;6.27;2.40;;;14.90;99.90;;;;;;5033586;28;20715;-57
2023/09/29 02:02:43;;;;;;;6.27;2.77;;;14.90;99.90;;;;;;5033596;28;20229;-58
2023/09/29 02:05:11;;;;;;;6.17;2.50;;;14.90;99.90;;;;;;5033219;28;20227;-57
2023/09/29 02:07:37;;;;;;;3.20;2.30;;;14.90;99.90;;;;;;5033170;28;20218;-57
2023/09/29 02:10:05;;;;;;;3.67;2.53;;;15.00;99.90;;;;;;5033261;28;20206;-58
2023/09/29 02:12:32;;;;;;;3.37;2.67;;;14.90;99.90;;;;;;5033220;28;20211;-58
2023/09/29 02:15:00;;;;;;;4.10;2.47;;;14.90;99.90;;;;;;5033177;28;20240;-57
2023/09/29 02:17:29;;;;;;;3.20;2.50;;;14.90;99.90;;;;;;5033198;28;20256;-58
2023/09/29 02:19:56;;;;;;;4.20;2.53;;;14.90;99.90;;;;;;5032992;28;20680;-57
2023/09/29 02:22:23;;;;;;;3.33;2.60;;;14.90;99.90;;;;;;5033299;28;20297;-57
2023/09/29 02:24:49;;;;;;;4.63;2.30;;;14.80;99.90;;;;;;5033793;28;20229;-58
2023/09/29 02:27:17;;;;;;;3.50;2.33;;;14.80;99.90;;;;;;5024732;28;20221;-58
2023/09/29 02:29:44;;;;;;;4.00;2.83;;;14.70;99.90;;;;;;5033454;28;20218;-57
2023/09/29 02:32:10;;;;;;;5.43;2.30;;;14.60;99.90;;;;;;5032986;28;20286;-58
2023/09/29 02:34:38;;;;;;;5.93;2.70;;;14.60;99.90;;;;;;5032435;28;20297;-57
2023/09/29 02:37:05;;;;;;;3.00;2.13;;;14.60;99.90;;;;;;5032552;28;20222;-57
2023/09/29 02:39:32;;;;;;;3.40;2.30;;;14.60;99.90;;;;;;5032750;28;20206;-57
2023/09/29 02:42:00;;;;;;;5.17;2.53;;;14.60;99.90;;;;;;5032729;28;20210;-58
2023/09/29 02:44:30;;;;;;;4.67;2.77;;;14.60;99.90;;;;;;5032818;28;20214;-58
2023/09/29 02:46:58;;;;;;;5.70;2.33;;;14.50;99.90;;;;;;5032557;28;20237;-57
2023/09/29 02:49:28;;;;;;;4.17;2.53;;;14.60;99.90;;;;;;5033101;28;20280;-58
2023/09/29 02:51:56;;;;;;;4.77;2.63;;;14.60;99.90;;;;;;5032540;28;20210;-60
2023/09/29 02:54:22;;;;;;;4.27;2.57;;;14.60;99.90;;;;;;5032294;28;20214;-60
2023/09/29 02:56:50;;;;;;;4.43;2.53;;;14.60;99.90;;;;;;5032223;28;20230;-60
2023/09/29 02:59:17;;;;;;;4.23;2.33;;;14.60;99.90;;;;;;5032622;28;20234;-59
2023/09/29 03:01:45;;;;;;;3.17;2.57;;;14.70;99.90;;;;;;5032367;28;20324;-60
2023/09/29 03:04:11;;;;;;;5.30;2.50;;;14.70;99.90;;;;;;5031943;28;20210;-59
2023/09/29 03:06:38;;;;;;;4.50;2.67;;;14.90;99.90;;;;;;5031480;28;20226;-61
2023/09/29 03:09:10;;;;;;;4.60;2.30;;;15.00;99.90;;;;;;5032248;28;20293;-57
2023/09/29 03:11:39;;;;;;;5.10;2.63;;;15.20;99.90;;;;;;5032545;28;20210;-59
2023/09/29 03:14:06;;;;;;;3.40;2.40;;;15.30;99.90;;;;;;5031930;28;20229;-59
2023/09/29 03:16:35;;;;;;;4.47;2.70;;;15.30;99.90;;;;;;5031634;28;20229;-58
2023/09/29 03:19:02;;;;;;;2.97;2.40;;;15.40;99.90;;;;;;5031892;28;20206;-59
2023/09/29 03:21:28;;;;;;;5.73;2.83;;;15.40;99.90;;;;;;5031958;28;20217;-60
2023/09/29 03:23:56;;;;;;;4.10;2.43;;;15.40;99.90;;;;;;5031497;28;20202;-59
2023/09/29 03:26:25;;;;;;;3.10;2.43;;;15.40;99.90;;;;;;5031269;28;20230;-59
2023/09/29 03:28:52;;;;;;;3.67;2.80;;;15.50;99.90;;;;;;5031791;28;20252;-59
2023/09/29 03:31:19;;;;;;;4.03;2.83;;;15.50;99.90;;;;;;5023733;28;20203;-60
2023/09/29 03:33:46;;;;;;;5.17;2.70;;;15.50;99.90;;;;;;5031716;28;20256;-58
2023/09/29 03:36:14;;;;;;;3.83;3.00;;;15.60;99.90;;;;;;5031820;28;20601;-60
2023/09/29 03:38:41;;;;;;;4.25;2.83;;;15.60;99.90;;;;;;5031962;28;20217;-60
2023/09/29 03:41:10;;;;;;;4.57;2.60;;;15.50;99.90;;;;;;5031427;28;20236;-60
2023/09/29 03:43:39;;;;;;;4.40;2.75;;;15.60;99.90;;;;;;5031481;28;20207;-60
2023/09/29 03:46:06;;;;;;;5.40;2.90;;;15.60;99.90;;;;;;5030163;28;20264;-58
2023/09/29 03:48:33;;;;;;;5.15;2.90;;;15.60;99.90;;;;;;5031487;28;20245;-60
2023/09/29 03:51:02;;;;;;;6.45;3.10;;;15.60;99.90;;;;;;5031102;28;20388;-59
2023/09/29 03:53:29;;;;;;;3.47;2.90;;;15.60;99.90;;;;;;5031383;28;20206;-59
2023/09/29 03:55:56;;;;;;;3.35;2.40;;;15.60;99.90;;;;;;5030730;28;20558;-58
2023/09/29 03:58:23;;;;;;;3.72;2.78;;;15.50;99.90;;;;;;5031110;28;20254;-59
2023/09/29 04:00:51;;;;;;;5.60;2.90;;;15.40;99.90;;;;;;5031402;28;20497;-59
2023/09/29 04:03:18;;;;;;;3.80;3.27;;;15.40;99.90;;;;;;5023296;28;20206;-60
2023/09/29 04:05:44;;;;;;;3.72;2.75;;;15.30;99.90;;;;;;5030546;28;20230;-60
2023/09/29 04:08:11;;;;;;;5.20;3.05;;;15.40;99.90;;;;;;5030604;28;20210;-59
2023/09/29 04:10:38;;;;;;;6.27;3.33;;;15.40;99.90;;;;;;5030894;28;20206;-58
2023/09/29 04:13:05;;;;;;;5.30;3.43;;;15.40;99.90;;;;;;5030554;28;20202;-59
2023/09/29 04:15:32;;;;;;;6.20;3.17;;;15.40;99.90;;;;;;5030202;28;20234;-59
2023/09/29 04:18:00;;;;;;;4.28;2.83;;;15.40;99.90;;;;;;5030890;28;20222;-60
2023/09/29 04:20:26;;;;;;;4.05;3.13;;;15.40;99.90;;;;;;5031015;28;20202;-59
2023/09/29 04:22:54;;;;;;;7.22;2.80;;;15.30;99.90;;;;;;5030692;28;20207;-59
2023/09/29 04:25:20;;;;;;;3.25;2.60;;;15.20;99.90;;;;;;5022346;28;20213;-58
2023/09/29 04:27:47;;;;;;;7.70;2.87;;;15.10;99.90;;;;;;5030159;28;20221;-59
2023/09/29 04:30:14;;;;;;;5.97;2.77;;;15.10;99.90;;;;;;5030307;28;20210;-60
2023/09/29 04:32:41;;;;;;;5.37;3.20;;;15.10;99.90;;;;;;5030640;28;20218;-60
2023/09/29 04:35:10;;;;;;;7.13;3.10;;;15.10;99.90;;;;;;5030472;28;20242;-60
2023/09/29 04:37:37;;;;;;;4.75;2.92;;;15.10;99.90;;;;;;5030060;28;20202;-60
2023/09/29 04:40:05;;;;;;;5.17;3.87;;;15.10;99.90;;;;;;5030313;28;20234;-60
2023/09/29 04:42:33;;;;;;;4.90;3.80;;;15.10;99.90;;;;;;5030254;28;20746;-60
2023/09/29 04:45:00;;;;;;;12.47;7.73;;;15.10;99.90;;;;;;5030449;28;20613;-60
2023/09/29 04:47:28;;;;;;;4.67;3.43;;;15.20;99.90;;;;;;5029961;28;20226;-60
2023/09/29 04:49:55;;;;;;;4.60;3.00;;;15.20;99.90;;;;;;5030300;28;20293;-60
2023/09/29 04:52:23;;;;;;;7.47;3.20;;;15.20;99.90;;;;;;5030038;28;20615;-60
2023/09/29 04:54:50;;;;;;;6.60;4.70;;;15.30;99.90;;;;;;5030337;28;20210;-60
2023/09/29 04:57:17;;;;;;;8.17;3.07;;;15.30;99.90;;;;;;5031754;28;20257;-60
2023/09/29 04:59:43;;;;;;;7.50;3.25;;;15.30;99.90;;;;;;5034429;28;20210;-60
2023/09/29 05:02:10;;;;;;;8.97;3.47;;;15.30;99.90;;;;;;5033865;28;20202;-60
2023/09/29 05:04:37;;;;;;;7.00;4.00;;;15.40;99.90;;;;;;5034229;28;20202;-61
2023/09/29 05:07:03;;;;;;;5.57;3.20;;;15.40;99.90;;;;;;5033728;28;20229;-61
2023/09/29 05:09:31;;;;;;;5.43;3.30;;;15.40;99.90;;;;;;5034026;28;20206;-59
2023/09/29 05:11:58;;;;;;;8.60;3.70;;;15.40;99.90;;;;;;5034333;28;20202;-60
2023/09/29 05:14:25;;;;;;;9.67;3.50;;;15.40;99.90;;;;;;5033888;28;20221;-60
2023/09/29 05:16:54;;;;;;;7.90;3.90;;;15.40;99.90;;;;;;5034002;28;20226;-59
2023/09/29 05:19:20;;;;;;;9.30;4.07;;;15.20;99.90;;;;;;5025996;28;20210;-60
2023/09/29 05:21:47;;;;;;;8.23;4.00;;;15.00;99.90;;;;;;5033782;28;20217;-60
2023/09/29 05:24:14;;;;;;;6.43;3.97;;;15.00;99.90;;;;;;5033444;28;20214;-59
2023/09/29 05:26:42;;;;;;;4.50;3.13;;;15.20;99.90;;;;;;5033173;28;20686;-59
2023/09/29 05:29:09;;;;;;;4.60;3.20;;;15.30;99.90;;;;;;5033495;28;20221;-59
2023/09/29 05:31:35;;;;;;;7.47;3.77;;;15.40;99.90;;;;;;5033115;28;20210;-59
2023/09/29 05:34:01;;;;;;;5.10;3.60;;;15.50;99.90;;;;;;5033042;28;20751;-58
2023/09/29 05:36:29;;;;;;;6.80;3.27;;;15.50;99.90;;;;;;5033423;28;20305;-58
2023/09/29 05:38:56;;;;;;;8.00;3.67;;;15.30;99.90;;;;;;5033315;28;20594;-58
2023/09/29 05:41:23;;;;;;;5.60;3.27;;;15.30;99.90;;;;;;5033401;28;20230;-59
2023/09/29 05:43:51;;;;;;;5.53;3.20;;;15.40;99.90;;;;;;5033379;28;20206;-57
2023/09/29 05:46:18;;;;;;;6.68;3.38;;;15.60;99.90;;;;;;5032749;28;20255;-59
2023/09/29 05:48:45;;;;;;;6.75;3.72;;;15.90;99.90;;;;;;5032853;28;20681;-59
2023/09/29 05:51:12;;;;;;;6.20;3.67;;;16.10;99.90;;;;;;5032861;28;20206;-59
2023/09/29 05:53:39;;;;;;;4.40;3.10;;;16.30;99.90;;;;;;5032930;28;20218;-59
2023/09/29 05:56:08;;;;;;;9.25;3.17;;;16.50;99.90;;;;;;5032810;28;20230;-59
2023/09/29 05:58:35;;;;;;;6.83;3.57;;;16.50;99.90;;;;;;5032910;28;20625;-58
2023/09/29 06:01:09;;;;;;;5.75;3.70;;;16.60;99.90;;;;;;5032548;28;20258;-59
2023/09/29 06:03:36;;;;;;;4.75;3.30;;;16.30;99.90;;;;;;5032723;28;20213;-59
2023/09/29 06:06:03;;;;;;;6.00;3.63;;;16.40;99.90;;;;;;5032496;28;20262;-59
2023/09/29 06:08:30;;;;;;;5.47;3.03;;;16.50;99.90;;;;;;5032454;28;20289;-58
2023/09/29 06:10:57;;;;;;;7.00;3.30;;;16.50;99.90;;;;;;5032860;28;20214;-58
2023/09/29 06:13:24;;;;;;;6.60;3.40;;;16.70;99.90;;;;;;5033181;28;20202;-59
2023/09/29 06:15:51;;;;;;;5.32;2.97;;;16.90;99.90;;;;;;5032573;28;20276;-59
2023/09/29 06:18:19;;;;;;;5.05;2.80;;;17.10;99.90;;;;;;5032891;28;20215;-60
2023/09/29 06:20:45;;;;;;;4.03;2.88;;;17.20;99.90;;;;;;5032758;28;20562;-59
2023/09/29 06:23:12;;;;;;;6.80;3.10;;;17.30;99.90;;;;;;5032915;28;20571;-59
2023/09/29 06:25:39;;;;;;;4.30;3.20;;;17.80;99.90;;;;;;5032461;28;20252;-59
2023/09/29 06:28:06;;;;;;;5.20;2.97;;;18.20;99.90;;;;;;5032690;28;20218;-59
2023/09/29 06:30:33;;;;;;;3.72;2.67;;;18.20;99.90;;;;;;5032550;28;20291;-59
2023/09/29 06:32:59;;;;;;;7.10;3.00;;;18.20;99.90;;;;;;5032545;28;20219;-58
2023/09/29 06:35:28;;;;;;;4.97;2.70;;;18.10;99.90;;;;;;5032634;28;20215;-59
2023/09/29 06:37:54;;;;;;;9.70;3.08;;;18.30;99.90;;;;;;5032848;28;20202;-59
2023/09/29 06:40:22;;;;;;;3.08;2.70;;;18.40;99.90;;;;;;5032698;28;20206;-58
2023/09/29 06:42:49;;;;;;;4.45;2.90;;;18.40;99.90;;;;;;5032543;28;20215;-58
2023/09/29 06:45:16;;;;;;;4.28;2.75;;;18.60;99.90;;;;;;5032021;28;20210;-59
2023/09/29 06:47:43;;;;;;;3.45;2.60;;;18.90;99.90;;;;;;5033086;28;20229;-59
2023/09/29 06:50:11;;;;;;;9.40;3.00;;;19.20;99.90;;;;;;5032402;28;20604;-59
2023/09/29 06:52:39;;;;;;;3.88;3.00;;;19.40;99.90;;;;;;5032389;28;20618;-59
2023/09/29 06:55:07;;;;;;;4.82;2.67;;;19.50;99.90;;;;;;5032061;28;20710;-59
2023/09/29 06:57:34;;;;;;;7.15;2.80;;;19.60;99.90;;;;;;5031584;28;20310;-59
2023/09/29 07:00:00;;;;;;;5.78;3.08;;;19.70;99.90;;;;;;5032237;28;20664;-59
2023/09/29 07:02:27;;;;;;;8.35;3.00;;;19.90;99.90;;;;;;5032222;28;20242;-59
2023/09/29 07:04:54;;;;;;;9.80;3.20;;;20.00;99.90;;;;;;5031726;28;20218;-59
2023/09/29 07:07:21;;;;;;;6.57;2.70;;;20.20;99.90;;;;;;5031191;28;20233;-59
2023/09/29 07:09:49;;;;;;;13.20;11.82;;;20.30;99.90;;;;;;5031878;28;20229;-60
2023/09/29 07:12:15;;;;;;;7.13;3.50;;;20.30;99.90;;;;;;5031842;28;20206;-59
2023/09/29 07:14:42;;;;;;;4.32;2.75;;;20.40;99.90;;;;;;5031722;28;20213;-59
2023/09/29 07:17:09;;;;;;;8.35;2.88;;;20.50;99.90;;;;;;5031967;28;20692;-60
2023/09/29 07:19:35;;;;;;;3.88;2.88;;;20.50;99.90;;;;;;5031740;28;20213;-59
2023/09/29 07:22:02;;;;;;;7.03;2.67;;;20.60;99.90;;;;;;5031742;28;20206;-59
2023/09/29 07:24:29;;;;;;;9.40;2.80;;;20.60;99.90;;;;;;5032110;28;20214;-60
2023/09/29 07:26:57;;;;;;;5.75;2.88;;;20.90;99.90;;;;;;5031328;28;20228;-57
2023/09/29 07:29:24;;;;;;;3.92;2.45;;;21.30;99.90;;;;;;5023040;28;20646;-58
2023/09/29 07:31:51;;;;;;;4.53;3.17;;;21.50;99.90;;;;;;5030638;28;20293;-60
2023/09/29 07:34:18;;;;;;;3.83;2.70;;;21.80;99.90;;;;;;5031063;28;20400;-59
2023/09/29 07:36:46;;;;;;;9.18;3.50;;;22.00;99.90;;;;;;5030731;28;20226;-60
2023/09/29 07:39:15;;;;;;;4.70;2.80;;;22.30;99.90;;;;;;5030932;28;20210;-60
2023/09/29 07:41:42;;;;;;;8.68;2.63;;;22.60;99.90;;;;;;5030862;28;20703;-60
2023/09/29 07:44:10;;;;;;;9.10;3.10;;;22.90;99.90;;;;;;5030433;28;20676;-60
2023/09/29 07:46:38;;;;;;;5.07;2.92;;;23.20;99.90;;;;;;5030912;28;20232;-60
2023/09/29 07:49:06;;;;;;;5.28;2.65;;;23.40;99.90;;;;;;5031209;28;20210;-63
2023/09/29 07:51:33;;;;;;;14.77;4.45;;;23.60;99.90;;;;;;5030678;28;20202;-59
2023/09/29 07:54:01;;;;;;;7.50;3.38;;;23.80;99.90;;;;;;5030685;28;20434;-61
2023/09/29 07:56:28;;;;;;;10.30;3.30;;;23.80;99.90;;;;;;5023171;28;20233;-59
2023/09/29 07:58:54;;;;;;;3.58;2.42;;;23.90;99.90;;;;;;5031149;28;20194;-59
2023/09/29 08:01:22;;;;;;;7.75;2.80;;;23.90;99.90;;;;;;5030542;28;20205;-59
2023/09/29 08:03:49;;;;;;;5.63;2.70;;;24.10;99.90;;;;;;5030500;28;20206;-58
2023/09/29 08:06:16;;;;;;;6.50;3.35;;;24.20;99.90;;;;;;5030455;28;20257;-59
2023/09/29 08:08:43;;;;;;;4.78;2.70;;;24.30;99.90;;;;;;5030798;28;20313;-58
2023/09/29 08:11:10;;;;;;;4.43;2.60;;;24.30;99.90;;;;;;5030777;28;20286;-58
2023/09/29 08:13:37;;;;;;;3.58;2.50;;;24.40;99.90;;;;;;5030773;28;20210;-59
2023/09/29 08:16:04;;;;;;;4.30;2.60;;;24.40;99.90;;;;;;5030397;28;20253;-59
2023/09/29 08:18:32;;;;;;;3.88;2.50;;;24.40;99.90;;;;;;5030409;28;20195;-59
2023/09/29 08:20:59;;;;;;;3.30;2.55;;;24.50;99.90;;;;;;5030772;28;20209;-58
2023/09/29 08:23:30;;;;;;;7.25;4.20;;;24.60;99.90;;;;;;5022396;28;20304;-59
2023/09/29 08:25:56;;;;;;;6.75;2.45;;;24.70;99.90;;;;;;5030458;28;20218;-59
2023/09/29 08:28:23;;;;;;;3.97;2.38;;;24.70;99.90;;;;;;5030188;28;20222;-58
2023/09/29 08:30:50;;;;;;;4.22;2.30;;;24.80;99.90;;;;;;5029856;28;20214;-59
2023/09/29 08:33:16;;;;;;;3.58;2.33;;;24.70;99.90;;;;;;5029635;28;20229;-59
2023/09/29 08:35:45;;;;;;;4.25;2.63;;;24.70;99.90;;;;;;5029214;28;20245;-58
2023/09/29 08:38:11;;;;;;;4.43;2.70;;;24.60;99.90;;;;;;5030541;28;20203;-59
2023/09/29 08:40:39;;;;;;;4.18;2.70;;;24.70;99.90;;;;;;5030579;28;20293;-60
2023/09/29 08:43:10;;;;;;;4.07;2.95;;;24.70;99.90;;;;;;5030219;28;20209;-59
2023/09/29 08:45:42;;;;;;;3.33;2.40;;;24.80;99.90;;;;;;5031117;28;20222;-64
2023/09/29 08:48:11;;;;;;;6.80;2.40;;;25.00;99.90;;;;;;5030443;28;20257;-59
2023/09/29 08:50:40;;;;;;;6.95;2.50;;;25.40;99.90;;;;;;5030695;28;20580;-59
2023/09/29 08:53:09;;;;;;;3.00;2.30;;;25.80;99.90;;;;;;5031221;28;20209;-59
2023/09/29 08:55:37;;;;;;;7.85;2.60;;;26.10;99.90;;;;;;5030244;28;20275;-59
2023/09/29 08:58:05;;;;;;;3.17;2.30;;;26.30;99.90;;;;;;5031109;28;20202;-60
2023/09/29 09:00:34;;;;;;;6.30;3.03;;;26.30;99.90;;;;;;5031352;28;20237;-59
2023/09/29 09:03:02;;;;;;;6.07;2.42;;;26.10;99.90;;;;;;5030769;28;20306;-59
2023/09/29 09:05:29;;;;;;;3.88;2.88;;;26.00;99.90;;;;;;5016631;28;20211;-59
2023/09/29 09:07:58;;;;;;;5.43;2.78;;;26.00;99.90;;;;;;5016780;28;20222;-59
2023/09/29 09:10:32;;;;;;;7.90;5.00;;;26.00;99.90;;;;;;5019743;28;20290;-59
2023/09/29 09:12:59;;;;;;;5.22;2.60;;;26.10;99.90;;;;;;5022222;28;20214;-60
2023/09/29 09:15:26;;;;;;;3.67;2.63;;;26.00;99.90;;;;;;5020910;28;20241;-60
2023/09/29 09:17:54;;;;;;;5.55;2.83;;;25.90;99.90;;;;;;5021976;28;20209;-59
2023/09/29 09:20:21;;;;;;;3.15;2.40;;;25.90;99.90;;;;;;5019510;28;20224;-60
2023/09/29 09:22:57;;;;;;;3.25;2.35;;;25.80;99.90;;;;;;5018434;28;20230;-60
2023/09/29 09:25:35;;;;;;;5.63;2.60;;;25.80;99.90;;;;;;5020513;28;20645;-60
2023/09/29 09:28:01;;;;;;;5.13;2.55;;;25.80;99.90;;;;;;5020841;28;20284;-59
2023/09/29 09:30:28;;;;;;;4.18;2.70;;;25.80;99.90;;;;;;5030560;28;20214;-60
2023/09/29 09:32:55;;;;;;;4.55;3.45;;;25.80;99.90;;;;;;5021778;28;20222;-61
2023/09/29 09:35:27;;;;;;;3.55;2.78;;;25.70;99.90;;;;;;5018974;28;20213;-61
2023/09/29 09:37:54;;;;;;;3.97;2.50;;;25.60;99.90;;;;;;5025292;28;20651;-60
2023/09/29 09:40:21;;;;;;;3.65;2.35;;;25.50;99.90;;;;;;5020966;28;20310;-60
2023/09/29 09:42:52;;;;;;;3.25;2.45;;;25.40;99.90;;;;;;5021555;28;20669;-60
2023/09/29 09:45:18;;;;;;;4.95;2.90;;;25.60;99.90;;;;;;5022797;28;20222;-60
2023/09/29 09:47:49;;;;;;;4.75;2.80;;;25.90;99.90;;;;;;5022655;28;20256;-60
2023/09/29 09:50:17;;;;;;;6.40;2.85;;;26.30;99.90;;;;;;5023211;28;20630;-59
2023/09/29 09:52:50;;;;;;;2.90;2.60;;;26.90;99.90;;;;;;5027164;28;20814;-59
2023/09/29 09:55:18;;;;;;;6.85;2.15;;;27.20;99.90;;;;;;5023163;28;20316;-59
2023/09/29 09:57:50;;;;;;;4.05;2.30;;;27.60;99.90;;;;;;5025278;28;20206;-60
2023/09/29 10:00:18;;;;;;;4.50;2.60;;;27.80;99.90;;;;;;5023270;28;20297;-60
2023/09/29 10:02:47;;;;;;;3.22;2.40;;;28.00;99.20;;;;;;5021459;28;20297;-60
2023/09/29 10:05:22;;;;;;;3.58;2.22;;;28.20;98.70;;;;;;5019930;28;20784;-59
2023/09/29 10:07:50;;;;;;;3.80;2.38;;;28.40;98.20;;;;;;5021255;28;20281;-60
2023/09/29 10:10:31;;;;;;;4.05;2.20;;;28.60;97.60;;;;;;5023181;28;20207;-60
2023/09/29 10:12:58;;;;;;;8.98;2.58;;;28.80;97.20;;;;;;5024916;28;20293;-59
2023/09/29 10:15:29;;;;;;;3.20;2.53;;;29.00;96.70;;;;;;5023569;28;20668;-58
2023/09/29 10:17:56;;;;;;;3.80;2.40;;;28.90;96.60;;;;;;5032249;28;20203;-59
2023/09/29 10:20:26;;;;;;;7.55;2.42;;;28.90;96.70;;;;;;5032535;28;20209;-60
2023/09/29 10:23:05;;;;;;;3.67;2.63;;;28.80;96.60;;;;;;5032797;28;20226;-59
2023/09/29 10:25:33;;;;;;;5.03;2.38;;;28.70;96.90;;;;;;5024554;28;20608;-59
2023/09/29 10:28:01;;;;;;;13.85;3.10;;;28.90;96.30;;;;;;5032758;28;20258;-58
2023/09/29 10:30:29;;;;;;;9.88;2.85;;;29.20;95.70;;;;;;5032541;28;20209;-58
2023/09/29 10:33:05;;;;;;;3.88;2.25;;;29.30;95.50;;;;;;5032749;28;20213;-58
2023/09/29 10:35:33;;;;;;;2.92;2.20;;;29.50;95.50;;;;;;5024994;28;20260;-57
2023/09/29 10:38:07;;;;;;;3.25;2.25;;;29.40;95.20;;;;;;5032937;28;20283;-58
2023/09/29 10:40:36;;;;;;;5.05;2.58;;;29.40;95.40;;;;;;5025139;28;20225;-59
2023/09/29 10:43:04;;;;;;;6.45;2.45;;;29.30;95.40;;;;;;5032351;28;20209;-59
2023/09/29 10:45:36;;;;;;;4.63;2.30;;;29.10;95.50;;;;;;5024533;28;20226;-59
2023/09/29 10:48:06;;;;;;;3.85;2.30;;;29.00;95.70;;;;;;5032133;28;20218;-58
2023/09/29 10:50:40;;;;;;;6.18;3.20;;;29.10;95.90;;;;;;5024487;28;20652;-58
2023/09/29 10:53:08;;;;;;;4.05;2.83;;;29.20;96.20;;;;;;5032244;28;20209;-58
2023/09/29 10:55:37;;;;;;;7.65;2.97;;;29.40;96.00;;;;;;5031176;28;20741;-59
2023/09/29 10:58:04;;;;;;;5.40;3.00;;;29.50;95.80;;;;;;5032176;28;20206;-58
2023/09/29 11:00:40;;;;;;;4.43;2.67;;;29.50;95.70;;;;;;5024339;28;20199;-59
2023/09/29 11:03:11;;;;;;;4.13;2.55;;;29.70;95.40;;;;;;5032004;28;20202;-58
2023/09/29 11:05:48;;;;;;;5.10;2.65;;;29.70;95.00;;;;;;5031716;28;20218;-58
2023/09/29 11:08:15;;;;;;;4.70;2.67;;;29.60;94.40;;;;;;5032252;28;20308;-59
2023/09/29 11:10:41;;;;;;;3.83;2.53;;;29.50;94.30;;;;;;5032241;28;20237;-60
2023/09/29 11:13:17;;;;;;;3.22;2.70;;;29.50;94.40;;;;;;5032048;28;20202;-59
2023/09/29 11:15:45;;;;;;;3.38;2.65;;;29.50;94.50;;;;;;5031355;28;20715;-59
2023/09/29 11:18:12;;;;;;;7.35;2.97;;;29.60;94.60;;;;;;5030727;28;20696;-59
2023/09/29 11:20:42;;;;;;;5.40;2.72;;;29.60;94.60;;;;;;5031967;28;20209;-59
2023/09/29 11:23:11;;;;;;;3.47;2.33;;;29.60;94.50;;;;;;5031803;28;20232;-59
2023/09/29 11:25:47;;;;;;;5.22;2.50;;;29.70;94.50;;;;;;5031456;28;20222;-57
2023/09/29 11:28:14;;;;;;;4.55;2.42;;;29.60;93.70;;;;;;5031816;28;20601;-57
2023/09/29 11:30:41;;;;;;;2.35;2.10;;;29.40;93.80;;;;;;5031506;28;20213;-58
2023/09/29 11:33:10;;;;;;;8.00;2.10;;;29.40;94.00;;;;;;5031684;28;20248;-55
2023/09/29 11:35:37;;;;;;;4.20;2.60;;;29.40;93.90;;;;;;5031302;28;20225;-57
2023/09/29 11:38:05;;;;;;;5.68;2.00;;;29.30;94.20;;;;;;5031813;28;20202;-56
2023/09/29 11:40:32;;;;;;;6.65;3.38;;;29.40;94.00;;;;;;5023832;28;20230;-57
2023/09/29 11:42:59;;;;;;;5.10;2.50;;;29.40;94.20;;;;;;5031292;28;20198;-57
2023/09/29 11:45:25;;;;;;;3.00;2.20;;;29.40;94.10;;;;;;5031115;28;20217;-56
2023/09/29 11:47:52;;;;;;;4.15;2.15;;;29.40;94.20;;;;;;5031570;28;20633;-56
2023/09/29 11:50:21;;;;;;;5.88;2.65;;;29.40;94.30;;;;;;5032171;28;20209;-56
2023/09/29 11:52:47;;;;;;;3.15;2.25;;;29.50;94.30;;;;;;5031825;28;20309;-57
2023/09/29 11:55:14;;;;;;;4.47;2.40;;;29.50;94.20;;;;;;5031174;28;20209;-56
2023/09/29 11:57:41;;;;;;;6.00;2.30;;;29.70;94.20;;;;;;5031937;28;20210;-56
2023/09/29 12:00:09;;;;;;;9.55;3.38;;;29.70;94.50;;;;;;5031477;28;20210;-57
2023/09/29 12:02:36;;;;;;;13.18;4.28;;;29.70;94.80;;;;;;5031707;28;20668;-56
2023/09/29 12:05:05;;;;;;;6.80;2.70;;;29.70;95.00;;;;;;5031794;28;20237;-58
2023/09/29 12:07:35;;;;;;;2.80;2.03;;;29.70;94.60;;;;;;5022373;28;20225;-56
2023/09/29 12:10:02;;;;;;;7.15;2.33;;;29.80;94.70;;;;;;5031974;28;20301;-57
2023/09/29 12:12:29;;;;;;;8.75;4.63;;;29.80;94.70;;;;;;5030938;28;20734;-58
2023/09/29 12:14:55;;;;;;;10.38;3.97;;;29.80;94.70;;;;;;5031537;28;20202;-58
2023/09/29 12:17:22;;;;;;;6.85;3.22;;;29.70;94.80;;;;;;5030390;28;20606;-57
2023/09/29 12:19:49;;;;;;;5.22;2.80;;;29.70;94.80;;;;;;5030258;28;20308;-56
2023/09/29 12:22:15;;;;;;;3.70;2.28;;;29.80;95.00;;;;;;5030789;28;20214;-56
2023/09/29 12:24:43;;;;;;;4.10;2.63;;;29.70;94.80;;;;;;5030909;28;20676;-57
2023/09/29 12:27:10;;;;;;;9.00;5.25;;;29.90;94.90;;;;;;5030301;28;20249;-57
2023/09/29 12:29:37;;;;;;;12.45;3.85;;;30.10;94.90;;;;;;5030527;28;20316;-57
2023/09/29 12:32:04;;;;;;;10.20;6.28;;;30.40;95.10;;;;;;5030723;28;20213;-57
2023/09/29 12:34:33;;;;;;;3.55;2.50;;;30.70;95.10;;;;;;5030750;28;20206;-57
2023/09/29 12:36:59;;;;;;;5.78;2.47;;;31.00;94.30;;;;;;5030208;28;20253;-57
2023/09/29 12:39:26;;;;;;;11.77;8.50;;;31.00;93.70;;;;;;5030648;28;20590;-57
2023/09/29 12:41:55;;;;;;;6.15;2.67;;;30.90;94.10;;;;;;5030926;28;20275;-56
2023/09/29 12:44:22;;;;;;;6.40;2.50;;;30.90;94.20;;;;;;5030603;28;20327;-56
2023/09/29 12:46:50;;;;;;;4.85;3.00;;;30.70;94.30;;;;;;5030556;28;20226;-57
2023/09/29 12:49:17;;;;;;;3.33;2.70;;;30.40;95.00;;;;;;5031068;28;20229;-62